Meteo Giornale » Osservazioni meteo Stati Uniti (USA) » Gwinn Sawyer
ore: 13:45 - Osservazioni Meteo Gwinn Sawyer
Lat. 46° 21' N Lon. 87° 23' W Alt. 372 metri s.l.m.
30 °C
Sereno
Temp. 24 Ore
15 °C
30 °C
Sud-Ovest
22.2 Km/h
Dew point 15 °C
Umidità 40 %
Visibilità 10 Km
Il sole sorge alle ore 07:10
Il sole tramonta alle ore 20:28
| Data e Ora | Cielo e Fenomeni | T °C | DP °C | Um. % | Pres. hPa | Vis. km | Vento km/h | |
|---|---|---|---|---|---|---|---|---|
| Oggi h: 13:45 | Sereno | 30 | 15 | 40 | 1012 | 10 | SO 22.2 | |
| Oggi h: 12:45 | Sereno | 28 | 19 | 58 | 1013 | 10 | S 18.5 | |
| Oggi h: 11:45 | Sereno | 26 | 20 | 69 | 1014 | 10 | S 18.5 | |
| Oggi h: 10:45 | Sereno | 24 | 19 | 73 | 1014 | 10 | SO 14.8 | |
| Oggi h: 09:45 | Sereno | 21 | 21 | 100 | 1014 | 10 | S/SO 9.3 | |
| Oggi h: 08:45 | Poco Nuvoloso | 18 | 18 | 100 | 1014 | 13 | N 1.8 | |
| Oggi h: 08:29 | Foschia | 17 | 17 | 100 | 1014 | 2 | N 3.7 | |
| Oggi h: 08:01 | Nebbia | 16 | 16 | 100 | 1014 | 2 | N 3.7 | |
| Oggi h: 07:49 | Nebbia | 15 | 15 | 100 | 1014 | 2 | N 3.7 | |
| Oggi h: 07:45 | Nebbia | 15 | 15 | 100 | 1014 | 5 | N 3.7 | |
| Oggi h: 06:45 | Nebbia | 17 | 17 | 100 | 1013 | 5 | N 3.7 | |
| Oggi h: 05:58 | Nebbia | 18 | 18 | 100 | 1013 | 0 | N 5.5 | |
| Oggi h: 05:38 | Nebbia | 17 | 17 | 100 | 1013 | 0 | N 5.5 | |
| Oggi h: 05:18 | Nebbia | 17 | 17 | 100 | 1013 | 0 | N 3.7 | |
| Oggi h: 04:58 | Nebbia | 17 | 17 | 100 | 1013 | 0 | N 3.7 | |
| Oggi h: 04:38 | Nebbia | 18 | 18 | 100 | 1013 | 2 | N 3.7 | |
| Oggi h: 04:18 | Nebbia | 19 | 19 | 100 | 1012 | 2 | N 1.8 | |
| Oggi h: 03:58 | Nebbia | 19 | 19 | 100 | 1013 | 0 | N 0 | |
| Oggi h: 03:38 | Nebbia | 19 | 19 | 100 | 1013 | 2 | N 3.7 | |
| Oggi h: 03:18 | Nebbia | 19 | 19 | 100 | 1012 | 2 | N 3.7 | |
| Oggi h: 02:58 | Nebbia | 20 | 20 | 100 | 1012 | 2 | N 3.7 | |
| Oggi h: 02:38 | Nebbia | 20 | 20 | 100 | 1012 | 0 | N 0 | |
| Oggi h: 02:18 | Nebbia | 20 | 20 | 100 | 1013 | 0 | N 3.7 | |
| Oggi h: 01:58 | Nebbia | 20 | 20 | 100 | 1013 | 2 | N 3.7 | |
| Oggi h: 01:38 | Nebbia | 20 | 20 | 100 | 1013 | 2 | N 1.8 | |
| Oggi h: 01:18 | Nebbia | 20 | 20 | 100 | 1013 | 0 | N 0 | |
| Oggi h: 00:58 | Nebbia | 20 | 20 | 100 | 1012 | 0 | N 5.5 | |
| Oggi h: 00:38 | Nebbia | 21 | 21 | 100 | 1012 | 2 | N 5.5 | |
| Oggi h: 00:18 | Foschia | 21 | 21 | 100 | 1012 | 2 | S 7.4 | |
| Ieri h: 23:58 | Foschia | 21 | 21 | 100 | 1012 | 2 | S 7.4 | |
| Ieri h: 23:38 | Foschia | 21 | 21 | 100 | 1012 | 8 | S 11.1 | |
| Ieri h: 23:18 | Foschia | 21 | 21 | 100 | 1012 | 10 | S 11.1 | |
| Ieri h: 22:58 | Nuvoloso | 22 | 21 | 94 | 1012 | 14 | S 11.1 | |
| Ieri h: 22:38 | Molto Nuvoloso | 22 | 22 | 100 | 1012 | 10 | S 9.3 | |
| Ieri h: 22:18 | Coperto | 23 | 22 | 94 | 1012 | 10 | S 9.3 | |
| Ieri h: 21:46 | Coperto | 24 | 22 | 88 | 1012 | 13 | S 9.3 | |
| Ieri h: 20:46 | Coperto | 25 | 22 | 83 | 1011 | 10 | N 5.5 | |
| Ieri h: 19:46 | Molto Nuvoloso | 26 | 22 | 78 | 1011 | 10 | N 5.5 | |
| Ieri h: 18:46 | Coperto | 26 | 22 | 78 | 1011 | 10 | O/SO 9.3 | |
| Ieri h: 17:46 | Coperto | 26 | 21 | 73 | 1010 | 10 | N 3.7 | |
| Ieri h: 16:46 | Coperto | 26 | 22 | 78 | 1010 | 10 | N 3.7 | |
| Ieri h: 15:46 | Coperto | 26 | 21 | 73 | 1010 | 10 | SO 7.4 | |
| Ieri h: 14:46 | Coperto | 25 | 21 | 78 | 1011 | 10 | S 14.8 | |



